Latest Coastal Weather Observations for Lombadina

IDW60701

Issued at 11:23 am WST Saturday 5 December 2020 (issued every 10 minutes, with the page automatically refreshed every 10 minutes)

About coastal observations | Map of coastal stations | Coastal observations for WA | Marine services | Other Formats
Station Details ID: 503016 Name: LOMBADINA AIRSTRIP Lat: -16.52 Lon: 122.92 Height: 42.0 m
Data from the previous 72 hours. | See also: Recent months for locations in Western Australia
Date/Time
WST
Wind Sea
Height
m
Swell Vis
km
Cloud Weather Temp
°C
Press
MSL
hPa
Rain since
9am
mm
Dir  Spd
kts
Gust
kts
Height
m
Period
s
Dir
05/11:00am NE 3 10 - - - - 10 - - 34.7 1007.3 0.0
05/10:30am E 6 9 - - - - 10 - - 34.0 1007.8 0.0
05/10:00am E 7 11 - - - - 10 - - 33.3 1008.1 0.0
05/09:30am E 6 11 - - - - 10 - - 32.3 1008.6 0.0
05/09:00am SE 5 9 - - - - 10 - - 32.3 1008.7 1.2
05/08:30am ESE 4 7 - - - - 10 - - 31.9 1009.0 1.2
05/08:00am SE 4 7 - - - - 10 - - 30.9 1009.0 1.2
05/07:30am ESE 5 8 - - - - 10 - - 29.7 1008.9 1.2
05/07:00am SE 4 7 - - - - 10 - - 28.9 1008.4 1.2
05/06:30am SSE 4 7 - - - - 10 - - 29.0 1008.0 1.2
05/06:00am SSE 2 4 - - - - 10 - - 28.2 1007.8 1.2
05/05:30am SSE 1 2 - - - - 10 - - 26.7 1007.8 1.2
05/05:00am SW 2 4 - - - - 10 - - 26.7 1007.4 1.2
05/04:30am CALM 0 0 - - - - 10 - - 26.6 1007.3 1.2
05/04:00am W 1 4 - - - - 10 - - 27.0 1007.0 1.2
05/03:30am SW 4 7 - - - - 10 - - 27.3 1007.0 1.2
05/03:00am SSW 3 5 - - - - 9 Cloudy Rain 27.1 1006.7 1.2
05/02:30am W 4 7 - - - - 10 Partly cloudy - 28.1 1007.0 1.0
05/02:00am WNW 2 6 - - - - 10 - - 28.3 1007.4 1.0
05/01:30am WNW 3 6 - - - - 10 - - 27.9 1007.1 1.0
05/01:00am W 4 8 - - - - 10 - - 27.5 1007.3 1.0
05/12:30am W 4 10 - - - - 10 - - 27.0 1007.9 1.0
05/12:00am WNW 5 9 - - - - 10 - - 27.4 1008.3 1.0
 
Date/Time
WST
Wind Sea
Height
m
Swell Vis
km
Cloud Weather Temp
°C
Press
MSL
hPa
Rain since
9am
mm
Dir  Spd
kts
Gust
kts
Height
m
Period
s
Dir
04/11:30pm NW 6 8 - - - - 10 - - 26.3 1008.9 1.0
04/11:00pm NW 10 14 - - - - 10 Partly cloudy - 25.6 1008.8 1.0
04/10:30pm N 11 24 - - - - 8 Partly cloudy - 24.3 1009.2 1.0
04/10:26pm NNE 14 29 - - - - 7 Partly cloudy - 24.4 1009.5 0.8
04/10:16pm NE 17 32 - - - - 10 Partly cloudy - 26.5 1010.5 0.0
04/10:04pm N 8 35 - - - - 10 Partly cloudy - 28.6 1010.1 0.0
04/10:02pm NW 4 17 - - - - 10 Partly cloudy - 29.6 1010.2 0.0
04/10:00pm WNW 2 7 - - - - 10 Partly cloudy - 29.7 1009.4 0.0
04/09:52pm WSW 2 5 - - - - 10 - - 29.4 1008.6 0.0
04/09:30pm WSW 3 6 - - - - 10 Partly cloudy - 29.5 1008.3 0.0
04/09:15pm WSW 3 5 - - - - 10 Partly cloudy - 29.5 1008.3 0.0
04/09:05pm WSW 4 8 - - - - 10 Partly cloudy - 29.5 1008.3 0.0
04/09:00pm WSW 5 9 - - - - 10 Mostly clear - 29.6 1008.2 0.0
04/08:30pm WNW 6 14 - - - - 10 Partly cloudy - 29.7 1007.7 0.0
04/08:00pm W 5 9 - - - - 10 - - 29.6 1007.6 0.0
04/07:30pm W 5 10 - - - - 10 - - 29.7 1007.2 0.0
04/07:00pm W 6 11 - - - - 10 - - 29.8 1006.7 0.0
04/06:30pm W 6 12 - - - - 10 - - 29.8 1006.1 0.0
04/06:00pm W 6 11 - - - - 10 - - 30.1 1005.8 0.0
04/05:30pm WNW 7 12 - - - - 10 - - 30.5 1005.6 0.0
04/05:00pm WNW 7 11 - - - - 10 - - 31.1 1005.1 0.0
04/04:30pm NW 7 10 - - - - 10 - - 31.5 1005.3 0.0
04/04:00pm WNW 7 9 - - - - 10 - - 32.3 1005.0 0.0
04/03:30pm NW 7 10 - - - - 10 - - 33.1 1004.9 0.0
04/03:00pm NW 9 12 - - - - 10 - - 32.9 1004.9 0.0
04/02:30pm NW 8 11 - - - - 10 - - 33.0 1005.2 0.0
04/02:00pm NW 8 11 - - - - 10 - - 33.0 1005.5 0.0
04/01:30pm WNW 8 11 - - - - 10 - - 32.3 1005.8 0.0
04/01:00pm NW 7 9 - - - - 10 - - 33.5 1006.3 0.0
04/12:30pm WNW 6 11 - - - - 10 - - 33.4 1006.7 0.0
04/12:00pm E 6 11 - - - - 10 - - 34.5 1007.1 0.0
04/11:30am ENE 6 12 - - - - 10 - - 34.1 1007.5 0.0
04/11:00am E 4 9 - - - - 10 - - 33.4 1007.8 0.0
04/10:30am E 5 11 - - - - 10 - - 33.4 1008.8 0.0
04/10:00am E 5 10 - - - - 10 - - 32.9 1009.1 0.0
04/09:30am ESE 5 9 - - - - 10 - - 32.1 1009.4 0.0
04/09:00am ESE 6 10 - - - - 10 - - 31.6 1009.6 36.8
04/08:30am E 6 10 - - - - 10 - - 31.3 1009.8 36.8
04/08:00am SE 5 9 - - - - 10 - - 30.5 1009.9 36.8
04/07:30am SE 5 8 - - - - 10 - - 29.9 1010.2 36.8
04/07:00am SE 5 9 - - - - 10 - - 29.1 1010.3 36.8
04/06:30am SE 3 7 - - - - 10 - - 28.4 1010.1 36.8
04/06:00am SSE 3 6 - - - - 10 - - 27.2 1009.9 36.8
04/05:30am SSE 3 6 - - - - 10 - - 26.3 1009.8 36.8
04/05:00am SSE 4 7 - - - - 10 Partly cloudy - 26.2 1009.7 36.8
04/04:30am SSE 2 4 - - - - 10 - - 26.2 1009.4 36.8
04/04:00am SE 3 6 - - - - 10 Partly cloudy - 26.4 1009.1 36.8
04/03:30am CALM 0 1 - - - - 10 - - 25.7 1008.4 36.8
04/03:00am CALM 0 1 - - - - 10 - - 25.7 1007.9 36.8
04/02:30am CALM 0 2 - - - - 10 - - 25.9 1007.8 36.8
04/02:00am CALM 0 0 - - - - 10 - - 26.2 1008.0 36.8
04/01:30am CALM 0 0 - - - - 10 - - 26.1 1008.2 36.8
04/01:00am CALM 0 0 - - - - 10 - - 26.2 1008.6 36.8
04/12:30am CALM 0 0 - - - - 10 - - 26.4 1008.8 36.8
04/12:00am CALM 0 1 - - - - 10 - - 26.7 1009.1 36.8
 
Date/Time
WST
Wind Sea
Height
m
Swell Vis
km
Cloud Weather Temp
°C
Press
MSL
hPa
Rain since
9am
mm
Dir  Spd
kts
Gust
kts
Height
m
Period
s
Dir
03/11:30pm WSW 1 3 - - - - 10 Partly cloudy - 26.8 1009.4 36.8
03/11:00pm CALM 0 2 - - - - 10 - - 26.9 1009.9 36.8
03/10:30pm W 2 3 - - - - 10 - - 27.4 1009.8 36.8
03/10:00pm W 1 4 - - - - 10 - - 27.5 1009.7 36.8
03/09:30pm W 1 3 - - - - 10 - - 26.9 1009.5 36.8
03/09:00pm WSW 1 2 - - - - 10 - - 27.2 1009.5 36.8
03/08:30pm WNW 1 3 - - - - 10 - - 27.1 1009.0 36.8
03/08:00pm WNW 1 2 - - - - 10 - - 27.2 1008.8 36.8
03/07:30pm W 3 5 - - - - 10 - - 27.5 1008.3 36.8
03/07:00pm WSW 2 4 - - - - 10 - - 27.1 1007.7 36.8
03/06:30pm WNW 2 4 - - - - 10 - - 27.6 1007.5 36.8
03/06:00pm NW 3 4 - - - - 10 - - 27.8 1007.0 36.8
03/05:30pm WNW 2 4 - - - - 10 - - 28.0 1006.8 36.8
03/05:00pm WSW 1 3 - - - - 10 - - 28.0 1006.7 36.8
03/04:30pm CALM 0 2 - - - - 10 - - 28.0 1006.6 36.8
03/04:00pm S 1 3 - - - - 10 - - 27.7 1006.5 36.8
03/03:30pm CALM 0 1 - - - - 10 - - 27.5 1006.3 36.8
03/03:00pm SSE 3 5 - - - - 10 - - 26.5 1006.4 36.8
03/02:30pm SSE 5 8 - - - - 10 - - 25.8 1006.7 36.8
03/02:00pm SE 3 5 - - - - 10 - - 25.5 1007.0 36.8
03/01:30pm SE 2 4 - - - - 10 - - 24.8 1007.5 36.8
03/01:00pm ESE 1 4 - - - - 10 Partly cloudy - 24.5 1007.9 36.8
03/12:30pm SE 4 6 - - - - 10 Partly cloudy - 23.8 1008.3 36.4
03/12:17pm SE 3 5 - - - - 10 Partly cloudy - 23.9 1008.7 36.2
03/12:07pm SE 2 7 - - - - 10 Partly cloudy - 23.9 1009.1 36.2
03/12:05pm ESE 2 6 - - - - 10 Partly cloudy - 23.8 1009.2 36.2
03/12:04pm ESE 2 7 - - - - 10 Partly cloudy - 23.8 1009.4 36.2
03/12:02pm ESE 3 7 - - - - 10 Partly cloudy - 23.9 1009.5 36.2
03/12:00pm ESE 3 7 - - - - 10 Cloudy Thunderstorm 23.9 1009.6 36.2
03/11:33am E 17 27 - - - - 0.6 Partly cloudy - 23.6 1011.7 21.0
03/11:30am ENE 17 28 - - - - 0.8 Partly cloudy - 24.5 1011.7 16.0
03/11:25am NE 15 28 - - - - 2 Partly cloudy - 24.8 1011.4 6.0
03/11:24am NE 15 28 - - - - 5 Partly cloudy - 25.0 1011.4 3.4
03/11:22am NNE 13 28 - - - - 10 Partly cloudy - 28.1 1010.8 0.0
03/11:12am NNE 11 18 - - - - 10 Partly cloudy - 29.5 1009.9 0.0
03/11:04am NNE 10 17 - - - - 10 Partly cloudy - 30.5 1009.8 0.0
03/11:00am NNE 11 18 - - - - 10 Partly cloudy - 30.8 1009.4 0.0
03/10:54am ENE 10 18 - - - - 10 Partly cloudy - 30.8 1009.7 0.0
03/10:30am E 10 15 - - - - 10 Partly cloudy - 34.1 1010.3 0.0
03/10:00am ENE 9 13 - - - - 10 - - 33.2 1009.9 0.0
03/09:30am ENE 9 13 - - - - 10 - - 32.9 1009.8 0.0
03/09:00am E 7 11 - - - - 10 - - 33.3 1009.6 0.0
03/08:30am ESE 5 10 - - - - 10 - - 32.9 1009.3 0.0
03/08:00am ESE 3 7 - - - - 10 - - 32.9 1009.0 0.0
03/07:30am SE 4 8 - - - - 10 - - 31.6 1009.0 0.0
03/07:00am SE 3 6 - - - - 10 - - 30.7 1009.1 0.0
03/06:30am ESE 2 5 - - - - 10 - - 30.0 1008.8 0.0
03/06:00am SE 3 5 - - - - 10 - - 28.8 1008.6 0.0
03/05:30am CALM 0 1 - - - - 10 - - 27.7 1008.2 0.0
03/05:00am SE 2 4 - - - - 10 - - 27.9 1008.1 0.0
03/04:30am CALM 0 2 - - - - 10 - - 28.0 1007.7 0.0
03/04:00am SE 2 4 - - - - 10 - - 28.1 1008.1 0.0
03/03:30am ESE 2 5 - - - - 10 Partly cloudy - 28.3 1007.7 0.0
03/03:00am SSE 1 4 - - - - 10 - - 28.3 1007.9 0.0
03/02:30am CALM 0 1 - - - - 10 Partly cloudy - 28.5 1007.6 0.0
03/02:00am SSW 1 3 - - - - 10 Partly cloudy - 28.6 1007.5 0.0
03/01:30am SW 2 5 - - - - 10 Partly cloudy - 29.0 1007.5 0.0
03/01:00am WSW 4 7 - - - - 10 Partly cloudy - 28.9 1007.2 0.0
03/12:30am WSW 3 6 - - - - 10 Partly cloudy - 29.0 1007.6 0.0
03/12:00am W 4 8 - - - - 10 Partly cloudy - 29.2 1008.0 0.0
 
Date/Time
WST
Wind Sea
Height
m
Swell Vis
km
Cloud Weather Temp
°C
Press
MSL
hPa
Rain since
9am
mm
Dir  Spd
kts
Gust
kts
Height
m
Period
s
Dir
02/11:30pm W 5 8 - - - - 10 - - 29.3 1008.2 0.0
02/11:00pm W 4 7 - - - - 10 - - 29.4 1008.8 0.0
02/10:30pm W 5 9 - - - - 10 - - 29.4 1008.9 0.0
02/10:00pm W 5 10 - - - - 10 - - 29.5 1008.9 0.0
02/09:30pm WNW 5 8 - - - - 10 - - 29.5 1008.8 0.0
02/09:00pm W 5 9 - - - - 10 - - 29.7 1008.7 0.0
02/08:30pm W 4 8 - - - - 10 - - 29.7 1008.4 0.0
02/08:00pm W 5 9 - - - - 10 - - 29.7 1008.2 0.0
02/07:30pm W 7 12 - - - - 10 - - 29.7 1007.9 0.0
02/07:00pm WNW 5 9 - - - - 10 Partly cloudy - 29.8 1007.5 0.0
02/06:30pm WNW 6 10 - - - - 10 - - 30.0 1006.9 0.0
02/06:00pm NW 7 10 - - - - 10 - Thunderstorm 30.3 1006.1 0.0
02/05:30pm NW 8 11 - - - - 10 - - 30.5 1005.8 0.0
02/05:00pm NW 8 11 - - - - 10 - - 31.0 1005.8 0.0
02/04:30pm NW 8 11 - - - - 10 - - 31.7 1005.7 0.0
02/04:00pm NW 10 15 - - - - 10 - - 31.8 1005.6 0.0
02/03:30pm NNW 9 15 - - - - 10 - - 33.1 1005.6 0.0
02/03:00pm NW 9 15 - - - - 10 - - 34.0 1005.7 0.0
02/02:30pm NW 10 16 - - - - 10 - - 32.9 1005.9 0.0
02/02:00pm NW 9 13 - - - - 10 Partly cloudy - 33.8 1006.3 0.0
02/01:30pm WSW 5 12 - - - - 10 Partly cloudy - 35.0 1006.7 0.0
02/01:00pm ENE 5 10 - - - - 10 - - 36.2 1006.7 0.0
02/12:30pm E 5 9 - - - - 10 - - 36.2 1007.1 0.0
02/12:00pm ENE 5 9 - - - - 10 - - 36.1 1007.3 0.0
02/11:30am ENE 6 10 - - - - 10 - - 35.5 1007.5 0.0

Other formats

Comma delimited format used in spreadsheet applications
http://www.bom.gov.au/fwo/IDW60701/IDW60701.99206.axf

JavaScript Object Notation format (JSON) in row-major order
http://www.bom.gov.au/fwo/IDW60701/IDW60701.99206.json

Data quality

Most of these data are generated automatically and are frequently updated. Quality checks on data are not normally performed. It is possible for incorrect values to appear. Refer to information at About Latest Weather Observations and please check the disclaimer before using these data.